Terminal Aerodrome Forecast
Issued by NWS Amarillo, TX

Current Version | Previous Version | Text Only | Print | Product List | Glossary On
Versions: 1 2 3 4 5 6 7 8 9 10 11 12 13 14
785
FTUS44 KAMA 262320
TAFDHT
TAF
KDHT 262320Z 2700/2724 18011KT P6SM FEW100
     FM271500 22020G30KT P6SM SKC=

USA.gov is the U.S. government's official web portal to all federal, state and local government web resources and services.